createdAt,value
2019-03-18T00:02:50.969Z,100189.95
2019-03-18T00:08:14.851Z,100196.03
2019-03-18T00:13:39.472Z,100189.52
2019-03-18T00:19:03.223Z,100205.32
2019-03-18T00:24:27.061Z,100196.08
2019-03-18T00:29:51.307Z,100192.74
2019-03-18T00:35:15.663Z,100200.98
2019-03-18T00:40:40.094Z,100206.80
2019-03-18T00:46:04.497Z,100201.27
2019-03-18T00:51:28.056Z,100190.59
2019-03-18T00:56:51.769Z,100207.67
2019-03-18T01:02:16.346Z,100213.53
2019-03-18T01:07:40.497Z,100231.37
2019-03-18T01:13:04.128Z,100227.33
2019-03-18T01:18:28.291Z,100222.09
2019-03-18T01:23:52.647Z,100224.83
2019-03-18T01:29:17.456Z,100236.24
2019-03-18T01:34:41.079Z,100236.18
2019-03-18T01:40:06.914Z,100238.89
2019-03-18T01:45:40.177Z,100227.75
2019-03-18T01:50:56.524Z,100223.63
2019-03-18T01:56:20.317Z,100221.58
2019-03-18T02:01:43.905Z,100225.31
2019-03-18T02:07:07.695Z,100224.09
2019-03-18T02:12:31.486Z,100230.13
2019-03-18T02:17:55.294Z,100235.78
2019-03-18T02:23:20.223Z,100226.23
2019-03-18T02:28:43.984Z,100223.59
2019-03-18T02:34:08.037Z,100221.51
2019-03-18T02:39:32.701Z,100229.20
2019-03-18T02:44:57.390Z,100223.95
2019-03-18T02:50:21.283Z,100228.30
2019-03-18T02:55:47.946Z,100230.91
2019-03-18T03:01:11.699Z,100234.58
2019-03-18T03:06:36.206Z,100231.89
2019-03-18T03:12:00.104Z,100243.55
2019-03-18T03:17:26.976Z,100252.41
2019-03-18T03:22:51.082Z,100239.30
2019-03-18T03:28:14.902Z,100247.84
2019-03-18T03:33:44.850Z,100232.14
2019-03-18T03:39:08.830Z,100245.11
2019-03-18T03:44:33.586Z,100241.83
2019-03-18T03:49:58.449Z,100234.89
2019-03-18T03:55:23.154Z,100235.41
2019-03-18T04:00:47.991Z,100240.91
2019-03-18T04:06:11.844Z,100252.50
2019-03-18T04:11:35.822Z,100263.06
2019-03-18T04:17:02.227Z,100266.34
2019-03-18T04:22:26.215Z,100264.05
2019-03-18T04:27:50.513Z,100274.36
2019-03-18T04:33:18.410Z,100271.63
2019-03-18T04:38:42.733Z,100278.41
2019-03-18T04:44:06.308Z,100286.16
2019-03-18T04:49:31.297Z,100288.75
2019-03-18T04:54:55.165Z,100294.02
2019-03-18T05:00:19.175Z,100310.67
2019-03-18T05:05:42.799Z,100315.13
2019-03-18T05:11:07.201Z,100315.50
2019-03-18T05:16:30.810Z,100318.56
2019-03-18T05:21:55.622Z,100322.21
2019-03-18T05:27:19.561Z,100329.63
2019-03-18T05:32:43.826Z,100327.94
2019-03-18T05:38:08.521Z,100328.77
2019-03-18T05:43:32.650Z,100343.64
2019-03-18T05:48:56.575Z,100357.44
2019-03-18T05:54:22.691Z,100360.24
2019-03-18T05:59:46.443Z,100356.67
2019-03-18T06:05:10.999Z,100377.25
2019-03-18T06:10:35.002Z,100380.68
2019-03-18T06:15:58.790Z,100383.83
2019-03-18T06:21:22.824Z,100385.13
2019-03-18T06:26:47.326Z,100392.52
2019-03-18T06:32:10.887Z,100403.64
2019-03-18T06:37:34.621Z,100407.47
2019-03-18T06:42:59.395Z,100409.97
2019-03-18T06:48:24.106Z,100401.82
2019-03-18T06:53:48.638Z,100418.84
2019-03-18T06:59:13.402Z,100409.76
2019-03-18T07:04:38.177Z,100422.42
2019-03-18T07:10:01.943Z,100428.50
2019-03-18T07:15:29.094Z,100443.30
2019-03-18T07:20:53.658Z,100438.10
2019-03-18T07:26:17.617Z,100433.75
2019-03-18T07:31:41.272Z,100430.27
2019-03-18T07:37:05.401Z,100436.28
2019-03-18T07:42:29.831Z,100452.16
2019-03-18T07:47:53.924Z,100452.59
2019-03-18T07:53:18.418Z,100449.59
2019-03-18T07:58:43.349Z,100447.88
2019-03-18T08:04:07.062Z,100444.81
2019-03-18T08:09:31.646Z,100446.48
2019-03-18T08:14:56.123Z,100453.08
2019-03-18T08:20:20.900Z,100459.51
2019-03-18T08:25:44.995Z,100467.73
2019-03-18T08:31:09.565Z,100473.41
2019-03-18T08:36:34.546Z,100475.56
2019-03-18T08:41:58.164Z,100474.20
2019-03-18T08:47:23.118Z,100487.50
2019-03-18T08:52:48.032Z,100480.59
2019-03-18T08:58:12.399Z,100485.45
2019-03-18T09:03:36.665Z,100473.87
2019-03-18T09:09:01.431Z,100489.38
2019-03-18T09:14:26.372Z,100497.68
2019-03-18T09:19:51.049Z,100487.91
2019-03-18T09:25:15.004Z,100498.19
2019-03-18T09:30:39.465Z,100516.56
2019-03-18T09:36:04.290Z,100520.20
2019-03-18T09:41:29.194Z,100514.00
2019-03-18T09:46:53.088Z,100514.33
2019-03-18T09:52:17.061Z,100516.42
2019-03-18T09:57:40.799Z,100525.41
2019-03-18T10:03:05.149Z,100522.84
2019-03-18T10:08:28.850Z,100506.05
2019-03-18T10:13:52.983Z,100519.78
2019-03-18T10:19:17.823Z,100532.02
2019-03-18T10:24:42.560Z,100535.17
2019-03-18T10:30:08.468Z,100538.19
2019-03-18T10:35:32.518Z,100559.41
2019-03-18T10:40:59.548Z,100562.92
2019-03-18T10:46:23.076Z,100566.72
2019-03-18T10:51:48.366Z,100581.06
2019-03-18T10:57:13.276Z,100583.64
2019-03-18T11:02:38.005Z,100587.25
2019-03-18T11:08:03.387Z,100573.02
2019-03-18T11:13:28.690Z,100581.02
2019-03-18T11:18:52.418Z,100580.02
2019-03-18T11:24:18.441Z,100582.80
2019-03-18T11:29:42.259Z,100566.42
2019-03-18T11:35:06.122Z,100567.55
2019-03-18T11:40:31.086Z,100558.48
2019-03-18T11:45:55.616Z,100553.36
2019-03-18T11:51:21.452Z,100578.09
2019-03-18T11:56:45.382Z,100586.22
2019-03-18T12:02:10.355Z,100567.42
2019-03-18T12:07:35.040Z,100574.40
2019-03-18T12:13:00.453Z,100575.29
2019-03-18T12:18:25.381Z,100588.72
2019-03-18T12:23:49.487Z,100586.37
2019-03-18T12:29:14.671Z,100575.94
2019-03-18T12:34:39.330Z,100558.59
2019-03-18T12:40:04.540Z,100575.98
2019-03-18T12:45:28.237Z,100604.18
2019-03-18T12:50:56.191Z,100619.09
2019-03-18T12:56:19.480Z,100598.59
2019-03-18T13:01:43.471Z,100585.13
2019-03-18T13:07:07.491Z,100591.91
2019-03-18T13:12:32.286Z,100605.33
2019-03-18T13:17:56.251Z,100605.51
2019-03-18T13:23:19.796Z,100628.75
2019-03-18T13:28:44.203Z,100618.27
2019-03-18T13:34:08.287Z,100610.45
2019-03-18T13:39:32.055Z,100603.33
2019-03-18T13:44:57.778Z,100600.78
2019-03-18T13:50:21.899Z,100593.50
2019-03-18T13:55:45.650Z,100600.52
2019-03-18T14:01:10.584Z,100608.12
2019-03-18T14:06:34.404Z,100618.67
2019-03-18T14:11:59.146Z,100615.30
2019-03-18T14:17:23.059Z,100646.64
2019-03-18T14:22:47.377Z,100663.11
2019-03-18T14:28:12.031Z,100681.52
2019-03-18T14:33:35.874Z,100672.72
2019-03-18T14:38:59.497Z,100670.70
2019-03-18T14:44:23.609Z,100675.01
2019-03-18T14:49:47.232Z,100667.53
2019-03-18T14:55:11.779Z,100673.59
2019-03-18T15:00:35.558Z,100672.76
2019-03-18T15:06:00.915Z,100679.04
2019-03-18T15:11:26.567Z,100691.81
2019-03-18T15:16:51.239Z,100682.89
2019-03-18T15:22:14.810Z,100686.94
2019-03-18T15:27:38.535Z,100715.37
2019-03-18T15:33:04.085Z,100755.06
2019-03-18T15:38:28.367Z,100766.27
2019-03-18T15:43:52.904Z,100782.13
2019-03-18T15:49:16.799Z,100810.14
2019-03-18T15:54:53.120Z,100818.62
2019-03-18T16:00:09.661Z,100810.58
2019-03-18T16:05:33.453Z,100798.09
2019-03-18T16:10:58.240Z,100794.69
2019-03-18T16:16:22.079Z,100801.36
2019-03-18T16:21:46.141Z,100812.02
2019-03-18T16:27:10.993Z,100815.55
2019-03-18T16:32:37.538Z,100832.25
2019-03-18T16:38:02.199Z,100845.52
2019-03-18T16:43:26.853Z,100848.13
2019-03-18T16:48:51.897Z,100859.16
2019-03-18T16:54:15.506Z,100861.14
2019-03-18T16:59:39.595Z,100875.50
2019-03-18T17:05:04.353Z,100869.70
2019-03-18T17:10:28.167Z,100878.48
2019-03-18T17:15:53.164Z,100894.77
2019-03-18T17:21:17.067Z,100908.71
2019-03-18T17:26:40.663Z,100912.57
2019-03-18T17:32:05.417Z,100925.19
2019-03-18T17:37:30.038Z,100950.34
2019-03-18T17:42:54.823Z,100970.36
2019-03-18T17:48:22.763Z,100970.84
2019-03-18T17:53:47.174Z,100988.52
2019-03-18T17:59:12.008Z,100976.88
2019-03-18T18:04:36.407Z,100992.25
2019-03-18T18:10:01.147Z,100996.16
2019-03-18T18:15:25.862Z,100996.29
2019-03-18T18:20:49.611Z,101003.30
2019-03-18T18:26:13.654Z,101013.14
2019-03-18T18:31:37.594Z,101026.43
2019-03-18T18:37:02.078Z,101026.35
2019-03-18T18:42:26.713Z,101036.05
2019-03-18T18:47:52.425Z,101027.46
2019-03-18T18:53:25.648Z,101041.13
2019-03-18T18:58:42.718Z,101051.14
2019-03-18T19:04:06.579Z,101038.34
2019-03-18T19:09:30.448Z,101052.04
2019-03-18T19:14:53.996Z,101066.91
2019-03-18T19:20:17.919Z,101072.98
2019-03-18T19:25:41.513Z,101088.31
2019-03-18T19:31:06.386Z,101107.53
2019-03-18T19:36:30.026Z,101124.01
2019-03-18T19:41:54.669Z,101130.62
2019-03-18T19:47:18.317Z,101137.33
2019-03-18T19:52:43.338Z,101146.98
2019-03-18T19:58:08.221Z,101136.92
2019-03-18T20:03:32.665Z,101149.83
2019-03-18T20:08:57.167Z,101154.64
2019-03-18T20:14:21.651Z,101159.70
2019-03-18T20:19:46.286Z,101167.86
2019-03-18T20:25:10.821Z,101167.49
2019-03-18T20:30:35.698Z,101186.23
2019-03-18T20:35:59.531Z,101184.42
2019-03-18T20:41:23.784Z,101196.09
2019-03-18T20:46:47.860Z,101199.48
2019-03-18T20:52:17.015Z,101204.44
2019-03-18T20:57:38.203Z,101212.38
2019-03-18T21:03:02.728Z,101202.57
2019-03-18T21:08:26.766Z,101206.78
2019-03-18T21:13:57.028Z,101223.87
2019-03-18T21:19:15.999Z,101234.62
2019-03-18T21:24:40.699Z,101246.27
2019-03-18T21:30:05.554Z,101255.09
2019-03-18T21:35:30.741Z,101260.77
2019-03-18T21:40:54.883Z,101278.81
2019-03-18T21:46:19.719Z,101276.78
2019-03-18T21:51:43.779Z,101284.03
2019-03-18T21:57:08.605Z,101285.44
2019-03-18T22:02:33.344Z,101274.92
2019-03-18T22:07:58.046Z,101295.98
2019-03-18T22:13:22.703Z,101290.41
2019-03-18T22:18:47.756Z,101288.24
2019-03-18T22:24:11.921Z,101302.30
2019-03-18T22:29:35.981Z,101307.83
2019-03-18T22:34:59.887Z,101317.08
2019-03-18T22:40:27.724Z,101322.36
2019-03-18T22:45:52.355Z,101325.45
2019-03-18T22:51:17.232Z,101316.94
2019-03-18T22:56:41.869Z,101338.18
2019-03-18T23:02:05.661Z,101343.65
2019-03-18T23:07:30.658Z,101348.06
2019-03-18T23:12:54.358Z,101352.63
2019-03-18T23:18:19.189Z,101346.84
2019-03-18T23:23:44.613Z,101349.98
2019-03-18T23:29:08.490Z,101367.03
2019-03-18T23:34:32.476Z,101371.09
2019-03-18T23:39:56.900Z,101370.89
2019-03-18T23:45:20.926Z,101382.87
2019-03-18T23:50:45.636Z,101386.24
2019-03-18T23:56:09.461Z,101390.68
